createdAt,value
2018-05-02T00:01:50.826Z,4.67
2018-05-02T00:04:26.082Z,4.20
2018-05-02T00:07:01.271Z,3.70
2018-05-02T00:09:36.564Z,4.30
2018-05-02T00:12:11.779Z,3.87
2018-05-02T00:14:47.652Z,4.00
2018-05-02T00:17:23.692Z,4.00
2018-05-02T00:19:59.664Z,3.90
2018-05-02T00:22:35.569Z,4.03
2018-05-02T00:25:10.851Z,4.37
2018-05-02T00:27:46.978Z,4.73
2018-05-02T00:30:22.208Z,4.23
2018-05-02T00:32:57.516Z,3.97
2018-05-02T00:35:32.625Z,6.13
2018-05-02T00:38:07.992Z,5.57
2018-05-02T00:40:43.221Z,6.90
2018-05-02T00:43:18.374Z,5.90
2018-05-02T00:45:53.719Z,4.97
2018-05-02T00:48:29.650Z,4.80
2018-05-02T00:51:04.872Z,5.30
2018-05-02T00:53:40.212Z,5.07
2018-05-02T00:56:15.466Z,5.13
2018-05-02T00:58:50.599Z,4.50
2018-05-02T01:01:25.972Z,5.07
2018-05-02T01:04:01.293Z,4.40
2018-05-02T01:06:37.202Z,4.77
2018-05-02T01:09:12.451Z,4.30
2018-05-02T01:11:47.715Z,4.83
2018-05-02T01:14:23.064Z,4.53
2018-05-02T01:16:58.502Z,5.43
2018-05-02T01:19:33.636Z,4.93
2018-05-02T01:22:08.867Z,5.27
2018-05-02T01:24:44.147Z,4.77
2018-05-02T01:27:19.386Z,5.70
2018-05-02T01:29:55.411Z,4.77
2018-05-02T01:32:30.649Z,4.00
2018-05-02T01:35:05.988Z,5.13
2018-05-02T01:37:41.351Z,5.00
2018-05-02T01:40:17.393Z,5.20
2018-05-02T01:42:53.421Z,4.80
2018-05-02T01:45:29.229Z,4.50
2018-05-02T01:48:06.139Z,5.13
2018-05-02T01:50:41.439Z,5.00
2018-05-02T01:53:16.750Z,5.20
2018-05-02T01:55:52.179Z,4.77
2018-05-02T01:58:28.089Z,5.10
2018-05-02T02:01:03.419Z,4.93
2018-05-02T02:03:38.763Z,5.07
2018-05-02T02:06:14.192Z,4.87
2018-05-02T02:08:49.539Z,4.83
2018-05-02T02:11:24.674Z,4.90
2018-05-02T02:13:59.900Z,4.20
2018-05-02T02:16:35.172Z,5.07
2018-05-02T02:19:10.286Z,4.93
2018-05-02T02:21:45.523Z,5.00
2018-05-02T02:24:21.707Z,5.27
2018-05-02T02:26:57.033Z,5.03
2018-05-02T02:29:32.376Z,4.73
2018-05-02T02:32:07.715Z,4.40
2018-05-02T02:34:43.782Z,5.30
2018-05-02T02:37:18.894Z,5.30
2018-05-02T02:39:54.151Z,4.70
2018-05-02T02:42:29.402Z,4.70
2018-05-02T02:45:04.754Z,5.13
2018-05-02T02:47:40.087Z,5.60
2018-05-02T02:50:15.427Z,4.77
2018-05-02T02:52:50.776Z,5.13
2018-05-02T02:55:26.095Z,5.23
2018-05-02T02:58:01.349Z,4.80
2018-05-02T03:00:36.484Z,5.43
2018-05-02T03:03:12.612Z,5.70
2018-05-02T03:05:47.718Z,5.20
2018-05-02T03:08:23.840Z,4.57
2018-05-02T03:10:59.065Z,5.03
2018-05-02T03:13:34.260Z,4.80
2018-05-02T03:16:09.343Z,5.57
2018-05-02T03:18:44.663Z,4.77
2018-05-02T03:21:20.569Z,4.87
2018-05-02T03:23:55.688Z,5.60
2018-05-02T03:26:31.007Z,6.50
2018-05-02T03:29:06.370Z,5.90
2018-05-02T03:31:41.722Z,4.50
2018-05-02T03:34:16.940Z,4.93
2018-05-02T03:36:52.187Z,5.27
2018-05-02T03:39:27.423Z,4.73
2018-05-02T03:42:02.771Z,4.50
2018-05-02T03:44:37.904Z,4.33
2018-05-02T03:47:13.090Z,5.60
2018-05-02T03:49:48.364Z,5.00
2018-05-02T03:52:23.627Z,5.13
2018-05-02T03:54:58.947Z,4.63
2018-05-02T03:57:34.369Z,5.00
2018-05-02T04:00:27.512Z,4.50
2018-05-02T04:16:35.957Z,4.87
2018-05-02T04:19:11.085Z,4.80
2018-05-02T04:21:46.311Z,4.90
2018-05-02T04:24:21.483Z,5.07
2018-05-02T04:26:56.823Z,5.73
2018-05-02T04:29:31.874Z,6.20
2018-05-02T04:32:06.970Z,4.53
2018-05-02T04:34:42.303Z,5.47
2018-05-02T04:37:17.679Z,5.47
2018-05-02T04:39:52.998Z,6.20
2018-05-02T04:42:28.362Z,5.70
2018-05-02T04:45:03.607Z,6.00
2018-05-02T04:47:38.995Z,6.47
2018-05-02T04:50:14.272Z,5.73
2018-05-02T04:52:49.705Z,6.33
2018-05-02T04:55:24.905Z,5.10
2018-05-02T04:58:00.220Z,5.87
2018-05-02T05:00:35.344Z,5.13
2018-05-02T05:03:10.568Z,4.20
2018-05-02T05:05:45.678Z,6.00
2018-05-02T05:08:20.947Z,5.37
2018-05-02T05:10:56.909Z,4.97
2018-05-02T05:13:32.576Z,6.17
2018-05-02T05:16:07.748Z,5.63
2018-05-02T05:18:45.259Z,4.80
2018-05-02T05:21:20.512Z,6.03
2018-05-02T05:23:55.682Z,4.97
2018-05-02T05:26:30.890Z,4.73
2018-05-02T05:29:06.136Z,5.37
2018-05-02T05:31:41.481Z,5.10
2018-05-02T05:34:16.597Z,5.53
2018-05-02T05:36:51.728Z,4.90
2018-05-02T05:39:27.087Z,5.17
2018-05-02T05:42:02.456Z,5.77
2018-05-02T05:44:38.324Z,5.53
2018-05-02T05:47:13.621Z,4.97
2018-05-02T05:49:48.870Z,5.30
2018-05-02T05:52:24.143Z,5.73
2018-05-02T05:55:00.179Z,5.40
2018-05-02T05:57:35.518Z,4.83
2018-05-02T06:00:10.753Z,4.70
2018-05-02T06:02:46.798Z,5.50
2018-05-02T06:05:22.159Z,5.30
2018-05-02T06:07:57.387Z,6.13
2018-05-02T06:10:32.686Z,5.50
2018-05-02T06:13:08.033Z,5.00
2018-05-02T06:15:43.200Z,5.13
2018-05-02T06:18:18.454Z,5.43
2018-05-02T06:20:53.787Z,5.10
2018-05-02T06:23:29.198Z,4.57
2018-05-02T06:26:05.177Z,4.77
2018-05-02T06:28:41.472Z,4.67
2018-05-02T06:31:16.802Z,4.87
2018-05-02T06:33:52.209Z,4.77
2018-05-02T06:36:27.489Z,4.90
2018-05-02T06:39:03.079Z,5.10
2018-05-02T06:41:38.321Z,4.43
2018-05-02T06:44:14.243Z,4.43
2018-05-02T06:46:49.457Z,4.50
2018-05-02T06:49:24.765Z,4.00
2018-05-02T06:52:00.758Z,4.17
2018-05-02T06:54:36.845Z,4.23
2018-05-02T06:57:11.950Z,4.30
2018-05-02T06:59:47.110Z,7.60
2018-05-02T07:02:22.438Z,3.80
2018-05-02T07:04:57.675Z,4.20
2018-05-02T07:07:33.645Z,4.37
2018-05-02T07:10:09.631Z,3.40
2018-05-02T07:12:45.063Z,3.97
2018-05-02T07:15:20.912Z,4.90
2018-05-02T07:17:56.851Z,4.50
2018-05-02T07:20:31.987Z,3.90
2018-05-02T07:23:07.306Z,4.07
2018-05-02T07:25:42.565Z,4.23
2018-05-02T07:28:17.880Z,4.30
2018-05-02T07:30:53.134Z,4.73
2018-05-02T07:33:28.440Z,3.80
2018-05-02T07:36:04.431Z,4.40
2018-05-02T07:38:39.901Z,5.00
2018-05-02T07:41:15.033Z,4.03
2018-05-02T07:43:50.608Z,3.87
2018-05-02T07:46:25.915Z,3.90
2018-05-02T07:49:01.141Z,4.40
2018-05-02T07:51:36.788Z,4.50
2018-05-02T07:54:13.747Z,4.00
2018-05-02T07:56:49.125Z,4.20
2018-05-02T07:59:24.532Z,4.30
2018-05-02T08:01:59.806Z,4.80
2018-05-02T08:04:35.156Z,4.70
2018-05-02T08:07:10.544Z,4.83
2018-05-02T08:09:45.841Z,5.23
2018-05-02T08:12:21.288Z,4.57
2018-05-02T08:14:56.613Z,4.13
2018-05-02T08:17:31.966Z,3.97
2018-05-02T08:20:07.302Z,4.10
2018-05-02T08:22:42.665Z,3.57
2018-05-02T08:25:18.418Z,3.90
2018-05-02T08:27:53.717Z,3.60
2018-05-02T08:30:28.986Z,4.13
2018-05-02T08:33:04.260Z,4.37
2018-05-02T08:35:39.467Z,3.67
2018-05-02T08:38:14.677Z,3.47
2018-05-02T08:40:50.754Z,4.13
2018-05-02T08:43:26.152Z,3.20
2018-05-02T08:46:02.102Z,4.23
2018-05-02T08:48:37.239Z,3.87
2018-05-02T08:51:12.638Z,3.80
2018-05-02T08:53:47.929Z,3.40
2018-05-02T08:56:23.281Z,3.50
2018-05-02T08:58:58.381Z,3.43
2018-05-02T09:01:33.680Z,4.50
2018-05-02T09:04:09.552Z,4.10
2018-05-02T09:06:45.531Z,4.93
2018-05-02T09:09:21.765Z,4.20
2018-05-02T09:11:57.738Z,3.40
2018-05-02T09:14:34.507Z,3.73
2018-05-02T09:17:10.517Z,3.90
2018-05-02T09:19:45.677Z,4.00
2018-05-02T09:22:20.944Z,3.67
2018-05-02T09:24:56.289Z,4.00
2018-05-02T09:27:31.577Z,4.43
2018-05-02T09:30:07.471Z,3.47
2018-05-02T09:32:42.634Z,3.77
2018-05-02T09:35:17.978Z,3.70
2018-05-02T09:37:53.317Z,4.10
2018-05-02T09:40:28.530Z,3.40
2018-05-02T09:43:03.890Z,4.20
2018-05-02T09:45:39.211Z,3.30
2018-05-02T09:48:14.560Z,4.10
2018-05-02T09:50:49.900Z,5.50
2018-05-02T09:53:25.095Z,4.40
2018-05-02T09:56:00.263Z,4.00
2018-05-02T09:58:35.491Z,3.07
2018-05-02T10:01:10.760Z,4.40
2018-05-02T10:03:46.845Z,3.20
2018-05-02T10:06:22.042Z,3.20
2018-05-02T10:08:57.115Z,3.53
2018-05-02T10:11:32.560Z,4.10
2018-05-02T10:14:07.876Z,3.83
2018-05-02T10:16:43.239Z,4.30
2018-05-02T10:19:18.513Z,3.77
2018-05-02T10:21:54.526Z,3.13
2018-05-02T10:24:30.682Z,3.70
2018-05-02T10:27:06.030Z,3.53
2018-05-02T10:29:43.064Z,3.60
2018-05-02T10:32:18.543Z,4.50
2018-05-02T10:34:53.758Z,3.00
2018-05-02T10:37:29.046Z,3.70
2018-05-02T10:40:04.366Z,3.13
2018-05-02T10:42:39.611Z,2.80
2018-05-02T10:45:14.830Z,2.73
2018-05-02T10:47:50.075Z,3.73
2018-05-02T10:50:25.458Z,3.20
2018-05-02T10:53:00.747Z,2.90
2018-05-02T10:55:36.100Z,2.80
2018-05-02T10:58:11.463Z,3.03
2018-05-02T11:00:47.435Z,3.00
2018-05-02T11:03:22.755Z,2.43
2018-05-02T11:05:58.802Z,2.90
2018-05-02T11:08:34.787Z,3.53
2018-05-02T11:11:09.974Z,3.53
2018-05-02T11:13:45.258Z,3.60
2018-05-02T11:16:20.474Z,3.00
2018-05-02T11:18:55.715Z,2.57
2018-05-02T11:21:31.051Z,2.50
2018-05-02T11:24:06.141Z,2.50
2018-05-02T11:26:41.324Z,2.93
2018-05-02T11:29:16.607Z,2.67
2018-05-02T11:31:51.993Z,2.70
2018-05-02T11:34:27.287Z,2.87
2018-05-02T11:37:02.363Z,2.50
2018-05-02T11:39:37.842Z,2.50
2018-05-02T11:42:12.900Z,2.97
2018-05-02T11:44:48.974Z,2.67
2018-05-02T11:47:24.153Z,3.23
2018-05-02T11:50:01.194Z,2.30
2018-05-02T11:52:36.363Z,2.80
2018-05-02T11:55:11.660Z,2.63
2018-05-02T11:57:47.050Z,2.40
2018-05-02T12:00:22.219Z,2.70
2018-05-02T12:02:57.585Z,2.67
2018-05-02T12:05:33.547Z,2.27
2018-05-02T12:08:08.864Z,2.90
2018-05-02T12:10:44.224Z,2.43
2018-05-02T12:13:19.654Z,1.90
2018-05-02T12:15:54.970Z,1.90
2018-05-02T12:18:30.323Z,1.80
2018-05-02T12:21:05.563Z,2.20
2018-05-02T12:23:40.797Z,2.10
2018-05-02T12:26:16.032Z,2.67
2018-05-02T12:28:51.271Z,2.50
2018-05-02T12:31:26.551Z,2.50
2018-05-02T12:34:02.601Z,2.53
2018-05-02T12:36:38.554Z,2.00
2018-05-02T12:39:13.893Z,2.17
2018-05-02T12:41:49.948Z,2.33
2018-05-02T12:44:25.145Z,2.30
2018-05-02T12:47:00.358Z,2.00
2018-05-02T12:49:35.615Z,2.47
2018-05-02T12:52:10.883Z,2.10
2018-05-02T12:54:46.146Z,2.30
2018-05-02T12:57:21.478Z,2.57
2018-05-02T12:59:56.891Z,2.17
2018-05-02T13:02:32.118Z,2.80
2018-05-02T13:05:08.089Z,2.50
2018-05-02T13:07:43.347Z,2.20
2018-05-02T13:10:18.802Z,2.00
2018-05-02T13:12:53.877Z,2.30
2018-05-02T13:15:29.180Z,1.93
2018-05-02T13:18:04.594Z,2.57
2018-05-02T13:20:40.617Z,2.07
2018-05-02T13:23:15.691Z,2.30
2018-05-02T13:25:50.984Z,2.37
2018-05-02T13:28:27.024Z,2.30
2018-05-02T13:31:03.001Z,2.20
2018-05-02T13:33:39.013Z,2.50
2018-05-02T13:36:14.280Z,2.23
2018-05-02T13:38:49.612Z,2.37
2018-05-02T13:41:24.952Z,1.93
2018-05-02T13:44:00.922Z,2.63
2018-05-02T13:46:36.153Z,2.10
2018-05-02T13:49:11.470Z,2.20
2018-05-02T13:51:46.727Z,2.13
2018-05-02T13:54:21.978Z,2.35
2018-05-02T13:56:57.996Z,2.23
2018-05-02T13:59:33.157Z,1.70
2018-05-02T14:02:08.412Z,2.90
2018-05-02T14:04:43.660Z,2.30
2018-05-02T14:07:18.998Z,2.47
2018-05-02T14:09:54.327Z,2.30
2018-05-02T14:12:29.580Z,2.70
2018-05-02T14:15:04.750Z,2.50
2018-05-02T14:17:40.063Z,2.30
2018-05-02T14:20:16.828Z,1.80
2018-05-02T14:22:52.012Z,2.00
2018-05-02T14:25:29.270Z,1.87
2018-05-02T14:28:04.299Z,2.20
2018-05-02T14:30:39.648Z,2.27
2018-05-02T14:33:14.757Z,1.50
2018-05-02T14:35:50.078Z,1.67
2018-05-02T14:38:25.393Z,1.50
2018-05-02T14:41:00.603Z,1.73
2018-05-02T14:43:35.810Z,1.90
2018-05-02T14:46:11.066Z,1.90
2018-05-02T14:48:46.392Z,1.40
2018-05-02T14:51:21.744Z,1.60
2018-05-02T14:53:57.079Z,1.80
2018-05-02T14:56:33.075Z,2.00
2018-05-02T14:59:08.204Z,1.93
2018-05-02T15:01:43.567Z,2.00
2018-05-02T15:04:19.487Z,1.97
2018-05-02T15:06:55.375Z,1.57
2018-05-02T15:09:30.443Z,1.73
2018-05-02T15:12:05.765Z,1.63
2018-05-02T15:14:41.807Z,1.90
2018-05-02T15:17:16.915Z,1.57
2018-05-02T15:19:52.247Z,1.70
2018-05-02T15:22:27.603Z,1.70
2018-05-02T15:25:03.029Z,1.20
2018-05-02T15:27:38.251Z,1.30
2018-05-02T15:30:13.724Z,0.93
2018-05-02T15:32:49.077Z,2.00
2018-05-02T15:35:24.398Z,1.33
2018-05-02T15:37:59.775Z,1.40
2018-05-02T15:40:35.274Z,1.47
2018-05-02T15:43:10.502Z,1.40
2018-05-02T15:45:46.755Z,1.27
2018-05-02T15:48:21.993Z,1.43
2018-05-02T15:50:57.987Z,1.27
2018-05-02T15:53:33.327Z,1.60
2018-05-02T15:56:08.672Z,1.73
2018-05-02T15:58:43.911Z,2.10
2018-05-02T16:01:19.065Z,1.57
2018-05-02T16:03:54.429Z,1.30
2018-05-02T16:06:29.447Z,1.50
2018-05-02T16:09:05.399Z,1.47
2018-05-02T16:11:40.713Z,1.20
2018-05-02T16:14:16.135Z,1.00
2018-05-02T16:16:51.296Z,1.30
2018-05-02T16:19:26.561Z,1.33
2018-05-02T16:22:01.925Z,1.60
2018-05-02T16:24:37.138Z,1.83
2018-05-02T16:27:12.480Z,1.80
2018-05-02T16:29:47.817Z,1.93
2018-05-02T16:32:23.987Z,1.80
2018-05-02T16:34:59.316Z,1.33
2018-05-02T16:37:34.464Z,1.63
2018-05-02T16:40:09.895Z,1.73
2018-05-02T16:42:45.050Z,1.80
2018-05-02T16:45:20.992Z,1.97
2018-05-02T16:47:56.395Z,1.63
2018-05-02T16:50:31.694Z,1.83
2018-05-02T16:53:07.126Z,1.57
2018-05-02T16:55:42.636Z,1.80
2018-05-02T16:58:20.329Z,1.30
2018-05-02T17:01:02.334Z,2.70
2018-05-02T17:03:37.887Z,2.83
2018-05-02T17:06:12.978Z,2.97
2018-05-02T17:08:48.429Z,2.50
2018-05-02T17:11:23.654Z,3.50
2018-05-02T17:13:58.975Z,2.40
2018-05-02T17:16:34.290Z,3.10
2018-05-02T17:19:09.781Z,2.70
2018-05-02T17:21:45.760Z,2.90
2018-05-02T17:24:21.003Z,2.37
2018-05-02T17:26:56.253Z,2.90
2018-05-02T17:29:31.550Z,2.00
2018-05-02T17:32:06.897Z,2.30
2018-05-02T17:34:42.207Z,2.10
2018-05-02T17:37:17.468Z,3.17
2018-05-02T17:39:53.435Z,1.83
2018-05-02T17:42:28.729Z,1.53
2018-05-02T17:45:04.003Z,2.10
2018-05-02T17:47:39.190Z,2.03
2018-05-02T17:50:14.343Z,1.60
2018-05-02T17:52:49.489Z,1.70
2018-05-02T17:55:24.769Z,2.50
2018-05-02T17:58:00.091Z,3.87
2018-05-02T18:00:35.478Z,3.37
2018-05-02T18:03:11.383Z,3.00
2018-05-02T18:05:46.584Z,3.20
2018-05-02T18:08:21.884Z,2.90
2018-05-02T18:10:57.204Z,5.40
2018-05-02T18:13:32.376Z,7.77
2018-05-02T18:16:11.487Z,10.00
2018-05-02T18:18:46.601Z,9.90
2018-05-02T18:21:21.984Z,7.30
2018-05-02T18:23:57.306Z,6.20
2018-05-02T18:26:32.802Z,4.47
2018-05-02T18:29:08.172Z,5.10
2018-05-02T18:31:44.231Z,4.20
2018-05-02T18:34:19.591Z,4.50
2018-05-02T18:36:54.916Z,8.83
2018-05-02T18:39:30.327Z,4.43
2018-05-02T18:42:05.491Z,4.77
2018-05-02T18:44:41.386Z,3.90
2018-05-02T18:47:16.801Z,3.67
2018-05-02T18:49:52.143Z,3.40
2018-05-02T18:52:28.119Z,4.17
2018-05-02T18:55:03.432Z,4.20
2018-05-02T18:57:38.782Z,2.47
2018-05-02T19:00:14.192Z,2.80
2018-05-02T19:02:49.419Z,3.40
2018-05-02T19:05:24.772Z,2.90
2018-05-02T19:08:00.716Z,3.20
2018-05-02T19:10:36.907Z,3.40
2018-05-02T19:13:13.012Z,3.10
2018-05-02T19:15:48.349Z,3.40
2018-05-02T19:18:29.161Z,3.23
2018-05-02T19:21:04.439Z,3.80
2018-05-02T19:23:39.748Z,3.73
2018-05-02T19:26:21.432Z,3.77
2018-05-02T19:28:57.419Z,3.90
2018-05-02T19:31:38.282Z,3.40
2018-05-02T19:34:13.562Z,2.77
2018-05-02T19:36:48.881Z,2.50
2018-05-02T19:39:24.283Z,2.43
2018-05-02T19:55:27.906Z,3.73
2018-05-02T19:58:03.102Z,3.30
2018-05-02T20:00:44.576Z,4.20
2018-05-02T20:03:19.845Z,2.80
2018-05-02T20:05:55.956Z,2.80
2018-05-02T20:08:36.828Z,3.47
2018-05-02T20:11:17.902Z,3.20
2018-05-02T20:14:10.023Z,3.63
2018-05-02T20:16:45.459Z,2.60
2018-05-02T20:19:21.585Z,4.47
2018-05-02T20:21:56.957Z,3.13
2018-05-02T20:24:32.286Z,3.70
2018-05-02T20:27:07.501Z,3.87
2018-05-02T20:29:42.912Z,3.83
2018-05-02T20:32:18.999Z,4.17
2018-05-02T20:34:54.510Z,4.00
2018-05-02T20:37:29.939Z,3.97
2018-05-02T20:40:05.914Z,4.23
2018-05-02T20:42:41.303Z,3.93
2018-05-02T20:45:16.669Z,4.87
2018-05-02T20:47:51.853Z,4.90
2018-05-02T20:50:28.031Z,4.60
2018-05-02T20:53:03.392Z,4.60
2018-05-02T20:55:38.715Z,4.13
2018-05-02T20:58:14.063Z,4.90
2018-05-02T21:00:49.198Z,4.87
2018-05-02T21:03:24.446Z,5.47
2018-05-02T21:05:59.662Z,4.43
2018-05-02T21:08:34.875Z,4.77
2018-05-02T21:11:10.004Z,6.20
2018-05-02T21:13:45.296Z,5.20
2018-05-02T21:16:20.632Z,5.27
2018-05-02T21:18:55.994Z,4.67
2018-05-02T21:21:31.416Z,5.23
2018-05-02T21:24:06.852Z,4.70
2018-05-02T21:26:44.734Z,5.30
2018-05-02T21:29:19.994Z,4.80
2018-05-02T21:31:56.056Z,4.87
2018-05-02T21:34:31.515Z,5.27
2018-05-02T21:37:06.724Z,4.47
2018-05-02T21:39:41.851Z,4.73
2018-05-02T21:42:17.136Z,4.50
2018-05-02T21:44:52.783Z,4.30
2018-05-02T21:47:28.177Z,5.00
2018-05-02T21:50:03.345Z,5.03
2018-05-02T21:52:38.711Z,4.00
2018-05-02T21:55:14.036Z,4.37
2018-05-02T21:57:49.367Z,4.67
2018-05-02T22:00:24.723Z,4.87
2018-05-02T22:02:59.941Z,4.80
2018-05-02T22:05:35.401Z,4.80
2018-05-02T22:08:10.805Z,5.20
2018-05-02T22:10:45.920Z,5.10
2018-05-02T22:13:21.214Z,3.93
2018-05-02T22:15:56.622Z,4.10
2018-05-02T22:18:31.853Z,5.33
2018-05-02T22:21:07.144Z,4.43
2018-05-02T22:23:42.383Z,4.20
2018-05-02T22:26:17.692Z,4.60
2018-05-02T22:28:53.067Z,4.87
2018-05-02T22:31:28.933Z,5.00
2018-05-02T22:34:04.170Z,4.60
2018-05-02T22:36:39.498Z,4.00
2018-05-02T22:39:14.779Z,4.73
2018-05-02T22:41:50.747Z,4.30
2018-05-02T22:44:25.966Z,4.13
2018-05-02T22:47:01.688Z,4.23
2018-05-02T22:49:36.918Z,4.57
2018-05-02T22:52:12.170Z,5.93
2018-05-02T22:54:47.544Z,4.53
2018-05-02T22:57:22.742Z,4.40
2018-05-02T22:59:58.754Z,3.90
2018-05-02T23:02:33.952Z,4.17
2018-05-02T23:05:09.868Z,3.77
2018-05-02T23:07:45.188Z,4.83
2018-05-02T23:10:20.493Z,4.40
2018-05-02T23:12:55.825Z,4.53
2018-05-02T23:15:31.113Z,5.10
2018-05-02T23:18:06.241Z,4.20
2018-05-02T23:20:42.532Z,4.07
2018-05-02T23:23:17.772Z,4.97
2018-05-02T23:25:53.094Z,4.57
2018-05-02T23:28:28.660Z,3.43
2018-05-02T23:31:03.727Z,4.80
2018-05-02T23:33:38.986Z,3.87
2018-05-02T23:36:14.214Z,4.00
2018-05-02T23:38:49.552Z,3.60
2018-05-02T23:41:24.808Z,3.97
2018-05-02T23:44:00.147Z,4.67
2018-05-02T23:46:36.020Z,4.27
2018-05-02T23:49:11.377Z,3.93
2018-05-02T23:51:46.578Z,3.90
2018-05-02T23:54:21.926Z,3.47
2018-05-02T23:56:57.123Z,4.10
2018-05-02T23:59:32.491Z,3.53
